sensor_id;sensor_type;location;lat;lon;timestamp;pressure;altitude;pressure_sealevel;temperature
26158;BMP280;67284;44.782;10.282;2023-03-01T00:03:45;101457.66;;;8.51
26158;BMP280;67284;44.782;10.282;2023-03-01T00:08:37;101461.88;;;8.49
26158;BMP280;67284;44.782;10.282;2023-03-01T00:13:30;101459.28;;;8.46
26158;BMP280;67284;44.782;10.282;2023-03-01T00:18:22;101454.97;;;8.42
26158;BMP280;67284;44.782;10.282;2023-03-01T00:23:14;101460.09;;;8.42
26158;BMP280;67284;44.782;10.282;2023-03-01T00:28:06;101454.09;;;8.37
26158;BMP280;67284;44.782;10.282;2023-03-01T00:32:57;101447.22;;;8.36
26158;BMP280;67284;44.782;10.282;2023-03-01T00:37:49;101444.69;;;8.38
26158;BMP280;67284;44.782;10.282;2023-03-01T00:42:49;101433.53;;;8.33
26158;BMP280;67284;44.782;10.282;2023-03-01T00:47:41;101439.50;;;8.32
26158;BMP280;67284;44.782;10.282;2023-03-01T00:52:33;101430.06;;;8.29
26158;BMP280;67284;44.782;10.282;2023-03-01T00:57:25;101436.91;;;8.30
26158;BMP280;67284;44.782;10.282;2023-03-01T01:02:18;101418.16;;;8.34
26158;BMP280;67284;44.782;10.282;2023-03-01T01:07:10;101412.09;;;8.28
26158;BMP280;67284;44.782;10.282;2023-03-01T01:12:02;101395.84;;;8.26
26158;BMP280;67284;44.782;10.282;2023-03-01T01:16:55;101397.59;;;8.29
26158;BMP280;67284;44.782;10.282;2023-03-01T01:21:47;101394.19;;;8.32
26158;BMP280;67284;44.782;10.282;2023-03-01T01:26:40;101382.25;;;8.34
26158;BMP280;67284;44.782;10.282;2023-03-01T01:31:33;101370.28;;;8.36
26158;BMP280;67284;44.782;10.282;2023-03-01T01:36:26;101369.47;;;8.39
26158;BMP280;67284;44.782;10.282;2023-03-01T01:41:19;101366.06;;;8.40
26158;BMP280;67284;44.782;10.282;2023-03-01T01:46:32;101352.38;;;8.41
26158;BMP280;67284;44.782;10.282;2023-03-01T01:51:30;101351.53;;;8.40
26158;BMP280;67284;44.782;10.282;2023-03-01T01:56:30;101342.09;;;8.41
26158;BMP280;67284;44.782;10.282;2023-03-01T02:01:22;101348.94;;;8.39
26158;BMP280;67284;44.782;10.282;2023-03-01T02:06:29;101342.97;;;8.38
26158;BMP280;67284;44.782;10.282;2023-03-01T02:11:23;101331.84;;;8.38
26158;BMP280;67284;44.782;10.282;2023-03-01T02:16:16;101326.69;;;8.38
26158;BMP280;67284;44.782;10.282;2023-03-01T02:31:14;101307.03;;;8.35
26158;BMP280;67284;44.782;10.282;2023-03-01T02:36:31;101300.16;;;8.31
26158;BMP280;67284;44.782;10.282;2023-03-01T02:41:28;101301.84;;;8.29
26158;BMP280;67284;44.782;10.282;2023-03-01T02:46:25;101296.72;;;8.29
26158;BMP280;67284;44.782;10.282;2023-03-01T02:56:25;101280.47;;;8.28
26158;BMP280;67284;44.782;10.282;2023-03-01T03:01:18;101281.31;;;8.27
26158;BMP280;67284;44.782;10.282;2023-03-01T03:06:10;101275.34;;;8.28
26158;BMP280;67284;44.782;10.282;2023-03-01T03:11:02;101265.91;;;8.27
26158;BMP280;67284;44.782;10.282;2023-03-01T03:15:55;101264.19;;;8.26
26158;BMP280;67284;44.782;10.282;2023-03-01T03:20:48;101265.91;;;8.27
26158;BMP280;67284;44.782;10.282;2023-03-01T03:25:44;101261.69;;;8.29
26158;BMP280;67284;44.782;10.282;2023-03-01T03:30:38;101260.81;;;8.29
26158;BMP280;67284;44.782;10.282;2023-03-01T03:35:33;101265.06;;;8.26
26158;BMP280;67284;44.782;10.282;2023-03-01T03:40:28;101264.19;;;8.26
26158;BMP280;67284;44.782;10.282;2023-03-01T03:45:20;101244.56;;;8.26
26158;BMP280;67284;44.782;10.282;2023-03-01T03:50:14;101252.22;;;8.22
26158;BMP280;67284;44.782;10.282;2023-03-01T03:55:08;101249.59;;;8.19
26158;BMP280;67284;44.782;10.282;2023-03-01T04:00:01;101252.16;;;8.19
26158;BMP280;67284;44.782;10.282;2023-03-01T04:05:02;101249.59;;;8.19
26158;BMP280;67284;44.782;10.282;2023-03-01T04:09:54;101242.78;;;8.16
26158;BMP280;67284;44.782;10.282;2023-03-01T04:14:46;101241.03;;;8.15
26158;BMP280;67284;44.782;10.282;2023-03-01T04:19:39;101245.22;;;8.10
26158;BMP280;67284;44.782;10.282;2023-03-01T04:24:31;101235.84;;;8.11
26158;BMP280;67284;44.782;10.282;2023-03-01T04:29:23;101234.97;;;8.07
26158;BMP280;67284;44.782;10.282;2023-03-01T04:34:14;101232.41;;;8.10
26158;BMP280;67284;44.782;10.282;2023-03-01T04:39:06;101230.78;;;8.12
26158;BMP280;67284;44.782;10.282;2023-03-01T04:44:04;101229.94;;;8.13
26158;BMP280;67284;44.782;10.282;2023-03-01T04:48:56;101236.75;;;8.13
26158;BMP280;67284;44.782;10.282;2023-03-01T04:53:48;101243.59;;;8.14
26158;BMP280;67284;44.782;10.282;2023-03-01T04:58:39;101233.34;;;8.14
26158;BMP280;67284;44.782;10.282;2023-03-01T05:03:31;101239.31;;;8.14
26158;BMP280;67284;44.782;10.282;2023-03-01T05:08:23;101236.78;;;8.17
26158;BMP280;67284;44.782;10.282;2023-03-01T05:13:15;101235.91;;;8.15
26158;BMP280;67284;44.782;10.282;2023-03-01T05:18:12;101231.63;;;8.16
26158;BMP280;67284;44.782;10.282;2023-03-01T05:23:04;101233.34;;;8.14
26158;BMP280;67284;44.782;10.282;2023-03-01T05:28:00;101237.63;;;8.15
26158;BMP280;67284;44.782;10.282;2023-03-01T05:32:55;101233.34;;;8.12
26158;BMP280;67284;44.782;10.282;2023-03-01T05:37:48;101227.25;;;8.07
26158;BMP280;67284;44.782;10.282;2023-03-01T05:42:45;101228.13;;;8.05
26158;BMP280;67284;44.782;10.282;2023-03-01T05:47:39;101230.63;;;8.00
26158;BMP280;67284;44.782;10.282;2023-03-01T05:52:34;101228.94;;;8.01
26158;BMP280;67284;44.782;10.282;2023-03-01T05:57:28;101234.09;;;8.04
26158;BMP280;67284;44.782;10.282;2023-03-01T06:02:20;101231.56;;;8.10
26158;BMP280;67284;44.782;10.282;2023-03-01T06:07:11;101231.63;;;8.13
26158;BMP280;67284;44.782;10.282;2023-03-01T06:12:03;101226.50;;;8.14
26158;BMP280;67284;44.782;10.282;2023-03-01T06:16:57;101237.66;;;8.16
26158;BMP280;67284;44.782;10.282;2023-03-01T06:21:49;101240.19;;;8.15
26158;BMP280;67284;44.782;10.282;2023-03-01T06:26:41;101246.19;;;8.15
26158;BMP280;67284;44.782;10.282;2023-03-01T06:31:33;101238.47;;;8.12
26158;BMP280;67284;44.782;10.282;2023-03-01T06:36:25;101239.22;;;8.07
26158;BMP280;67284;44.782;10.282;2023-03-01T06:41:17;101236.75;;;8.13
26158;BMP280;67284;44.782;10.282;2023-03-01T06:46:08;101242.78;;;8.16
26158;BMP280;67284;44.782;10.282;2023-03-01T06:51:00;101250.47;;;8.16
26158;BMP280;67284;44.782;10.282;2023-03-01T06:55:56;101241.91;;;8.17
26158;BMP280;67284;44.782;10.282;2023-03-01T07:00:48;101250.47;;;8.15
26158;BMP280;67284;44.782;10.282;2023-03-01T07:05:40;101252.13;;;8.14
26158;BMP280;67284;44.782;10.282;2023-03-01T07:10:32;101247.00;;;8.13
26158;BMP280;67284;44.782;10.282;2023-03-01T07:15:25;101247.78;;;8.10
26158;BMP280;67284;44.782;10.282;2023-03-01T07:20:18;101252.91;;;8.10
26158;BMP280;67284;44.782;10.282;2023-03-01T07:25:10;101246.94;;;8.10
26158;BMP280;67284;44.782;10.282;2023-03-01T07:30:03;101243.53;;;8.08
26158;BMP280;67284;44.782;10.282;2023-03-01T07:34:55;101251.19;;;8.05
26158;BMP280;67284;44.782;10.282;2023-03-01T07:39:47;101245.19;;;8.03
26158;BMP280;67284;44.782;10.282;2023-03-01T07:44:38;101234.91;;;8.01
26158;BMP280;67284;44.782;10.282;2023-03-01T07:49:30;101241.75;;;7.99
26158;BMP280;67284;44.782;10.282;2023-03-01T07:54:22;101234.88;;;7.97
26158;BMP280;67284;44.782;10.282;2023-03-01T07:59:14;101243.41;;;7.96
26158;BMP280;67284;44.782;10.282;2023-03-01T08:04:08;101233.16;;;7.99
26158;BMP280;67284;44.782;10.282;2023-03-01T08:09:00;101222.06;;;7.98
26158;BMP280;67284;44.782;10.282;2023-03-01T08:13:52;101226.34;;;7.98
26158;BMP280;67284;44.782;10.282;2023-03-01T08:18:44;101227.16;;;7.91
26158;BMP280;67284;44.782;10.282;2023-03-01T08:23:36;101213.44;;;7.90
26158;BMP280;67284;44.782;10.282;2023-03-01T08:28:28;101227.16;;;7.91
26158;BMP280;67284;44.782;10.282;2023-03-01T08:33:20;101219.38;;;7.86
26158;BMP280;67284;44.782;10.282;2023-03-01T08:38:12;101201.44;;;7.83
26158;BMP280;67284;44.782;10.282;2023-03-01T08:43:04;101208.25;;;7.81
26158;BMP280;67284;44.782;10.282;2023-03-01T08:47:56;101199.75;;;7.84
26158;BMP280;67284;44.782;10.282;2023-03-01T08:52:47;101187.81;;;7.87
26158;BMP280;67284;44.782;10.282;2023-03-01T08:57:39;101178.31;;;7.77
26158;BMP280;67284;44.782;10.282;2023-03-01T09:02:31;101168.06;;;7.75
26158;BMP280;67284;44.782;10.282;2023-03-01T09:07:23;101162.09;;;7.76
26158;BMP280;67284;44.782;10.282;2023-03-01T09:12:19;101172.38;;;7.78
26158;BMP280;67284;44.782;10.282;2023-03-01T09:17:11;101166.47;;;7.87
26158;BMP280;67284;44.782;10.282;2023-03-01T09:22:04;101174.13;;;7.84
26158;BMP280;67284;44.782;10.282;2023-03-01T09:26:56;101165.53;;;7.82
26158;BMP280;67284;44.782;10.282;2023-03-01T09:31:48;101161.31;;;7.85
26158;BMP280;67284;44.782;10.282;2023-03-01T09:36:40;101154.50;;;7.89
26158;BMP280;67284;44.782;10.282;2023-03-01T09:41:42;101158.81;;;7.93
26158;BMP280;67284;44.782;10.282;2023-03-01T09:46:40;101156.28;;;7.96
26158;BMP280;67284;44.782;10.282;2023-03-01T09:51:34;101150.28;;;7.95
26158;BMP280;67284;44.782;10.282;2023-03-01T09:56:32;101144.28;;;7.93
26158;BMP280;67284;44.782;10.282;2023-03-01T10:06:36;101136.56;;;7.89
26158;BMP280;67284;44.782;10.282;2023-03-01T10:11:35;101125.53;;;7.96
26158;BMP280;67284;44.782;10.282;2023-03-01T10:16:40;101125.50;;;7.93
26158;BMP280;67284;44.782;10.282;2023-03-01T10:21:41;101112.69;;;7.91
26158;BMP280;67284;44.782;10.282;2023-03-01T10:31:48;101104.94;;;7.85
26158;BMP280;67284;44.782;10.282;2023-03-01T10:36:42;101106.72;;;7.91
26158;BMP280;67284;44.782;10.282;2023-03-01T10:41:44;101087.97;;;7.98
26158;BMP280;67284;44.782;10.282;2023-03-01T10:46:43;101075.19;;;8.04
26158;BMP280;67284;44.782;10.282;2023-03-01T10:51:36;101077.75;;;8.08
26158;BMP280;67284;44.782;10.282;2023-03-01T10:56:45;101072.69;;;8.13
26158;BMP280;67284;44.782;10.282;2023-03-01T11:01:38;101069.28;;;8.14
26158;BMP280;67284;44.782;10.282;2023-03-01T11:06:30;101062.44;;;8.14
26158;BMP280;67284;44.782;10.282;2023-03-01T11:11:26;101051.34;;;8.14
26158;BMP280;67284;44.782;10.282;2023-03-01T11:21:28;101035.13;;;8.18
26158;BMP280;67284;44.782;10.282;2023-03-01T11:26:23;101037.72;;;8.19
26158;BMP280;67284;44.782;10.282;2023-03-01T11:31:15;101033.44;;;8.20
26158;BMP280;67284;44.782;10.282;2023-03-01T11:41:13;101047.97;;;8.24
26158;BMP280;67284;44.782;10.282;2023-03-01T11:46:38;101048.81;;;8.24
26158;BMP280;67284;44.782;10.282;2023-03-01T11:57:06;101069.28;;;8.14
26158;BMP280;67284;44.782;10.282;2023-03-01T12:23:02;101068.34;;;8.03
26158;BMP280;67284;44.782;10.282;2023-03-01T12:32:59;101056.47;;;8.14
26158;BMP280;67284;44.782;10.282;2023-03-01T12:53:25;101068.47;;;8.19
26158;BMP280;67284;44.782;10.282;2023-03-01T13:19:13;101048.75;;;8.11
26158;BMP280;67284;44.782;10.282;2023-03-01T13:29:26;101026.50;;;8.10
26158;BMP280;67284;44.782;10.282;2023-03-01T13:34:55;101007.72;;;8.08
26158;BMP280;67284;44.782;10.282;2023-03-01T13:39:47;101008.56;;;8.08
26158;BMP280;67284;44.782;10.282;2023-03-01T13:44:39;101007.72;;;8.08
26158;BMP280;67284;44.782;10.282;2023-03-01T13:54:38;101018.81;;;8.11
26158;BMP280;67284;44.782;10.282;2023-03-01T13:59:30;101039.31;;;8.08
26158;BMP280;67284;44.782;10.282;2023-03-01T14:04:26;101050.41;;;8.06
26158;BMP280;67284;44.782;10.282;2023-03-01T14:09:22;101044.44;;;8.05
26158;BMP280;67284;44.782;10.282;2023-03-01T14:14:36;101045.28;;;8.06
26158;BMP280;67284;44.782;10.282;2023-03-01T14:19:31;101045.28;;;8.04
26158;BMP280;67284;44.782;10.282;2023-03-01T14:24:24;101037.56;;;8.03
26158;BMP280;67284;44.782;10.282;2023-03-01T14:29:35;101038.41;;;7.99
26158;BMP280;67284;44.782;10.282;2023-03-01T14:34:27;101037.56;;;7.97
26158;BMP280;67284;44.782;10.282;2023-03-01T14:39:24;101035.81;;;7.94
26158;BMP280;67284;44.782;10.282;2023-03-01T14:44:22;101035.81;;;7.91
26158;BMP280;67284;44.782;10.282;2023-03-01T14:49:19;101031.50;;;7.89
26158;BMP280;67284;44.782;10.282;2023-03-01T14:54:26;101032.34;;;7.88
26158;BMP280;67284;44.782;10.282;2023-03-01T14:59:22;101040.91;;;7.85
26158;BMP280;67284;44.782;10.282;2023-03-01T15:04:15;101040.88;;;7.82
26158;BMP280;67284;44.782;10.282;2023-03-01T15:09:14;101038.31;;;7.84
26158;BMP280;67284;44.782;10.282;2023-03-01T15:14:41;101042.56;;;7.83
26158;BMP280;67284;44.782;10.282;2023-03-01T15:19:45;101041.72;;;7.83
26158;BMP280;67284;44.782;10.282;2023-03-01T15:24:37;101053.69;;;7.84
26158;BMP280;67284;44.782;10.282;2023-03-01T15:29:30;101052.81;;;7.83
26158;BMP280;67284;44.782;10.282;2023-03-01T15:34:31;101053.69;;;7.82
26158;BMP280;67284;44.782;10.282;2023-03-01T15:44:32;101045.16;;;7.85
26158;BMP280;67284;44.782;10.282;2023-03-01T15:49:43;101050.28;;;7.88
26158;BMP280;67284;44.782;10.282;2023-03-01T15:54:45;101067.38;;;7.90
26158;BMP280;67284;44.782;10.282;2023-03-01T15:59:41;101076.81;;;7.91
26158;BMP280;67284;44.782;10.282;2023-03-01T16:04:33;101075.97;;;7.91
26158;BMP280;67284;44.782;10.282;2023-03-01T16:09:26;101070.78;;;7.86
26158;BMP280;67284;44.782;10.282;2023-03-01T16:14:18;101069.06;;;7.82
26158;BMP280;67284;44.782;10.282;2023-03-01T16:19:10;101075.91;;;7.85
26158;BMP280;67284;44.782;10.282;2023-03-01T16:24:01;101075.91;;;7.85
26158;BMP280;67284;44.782;10.282;2023-03-01T16:28:57;101081.88;;;7.82
26158;BMP280;67284;44.782;10.282;2023-03-01T16:33:49;101084.38;;;7.78
26158;BMP280;67284;44.782;10.282;2023-03-01T16:38:43;101086.09;;;7.79
26158;BMP280;67284;44.782;10.282;2023-03-01T16:43:37;101071.56;;;7.79
26158;BMP280;67284;44.782;10.282;2023-03-01T16:48:28;101080.13;;;7.80
26158;BMP280;67284;44.782;10.282;2023-03-01T16:53:20;101079.25;;;7.78
26158;BMP280;67284;44.782;10.282;2023-03-01T16:58:12;101081.81;;;7.76
26158;BMP280;67284;44.782;10.282;2023-03-01T17:03:04;101071.56;;;7.76
26158;BMP280;67284;44.782;10.282;2023-03-01T17:07:56;101089.50;;;7.78
26158;BMP280;67284;44.782;10.282;2023-03-01T17:12:48;101092.94;;;7.77
26158;BMP280;67284;44.782;10.282;2023-03-01T17:17:41;101092.06;;;7.79
26158;BMP280;67284;44.782;10.282;2023-03-01T17:22:33;101084.34;;;7.74
26158;BMP280;67284;44.782;10.282;2023-03-01T17:27:25;101096.31;;;7.75
26158;BMP280;67284;44.782;10.282;2023-03-01T17:32:17;101090.34;;;7.74
26158;BMP280;67284;44.782;10.282;2023-03-01T17:37:09;101086.91;;;7.72
26158;BMP280;67284;44.782;10.282;2023-03-01T17:42:04;101081.75;;;7.68
26158;BMP280;67284;44.782;10.282;2023-03-01T17:46:57;101083.38;;;7.60
26158;BMP280;67284;44.782;10.282;2023-03-01T17:51:48;101087.66;;;7.59
26158;BMP280;67284;44.782;10.282;2023-03-01T17:56:40;101094.50;;;7.60
26158;BMP280;67284;44.782;10.282;2023-03-01T18:01:33;101109.03;;;7.64
26158;BMP280;67284;44.782;10.282;2023-03-01T18:06:28;101115.03;;;7.65
26158;BMP280;67284;44.782;10.282;2023-03-01T18:11:21;101113.31;;;7.65
26158;BMP280;67284;44.782;10.282;2023-03-01T18:16:16;101121.00;;;7.65
26158;BMP280;67284;44.782;10.282;2023-03-01T18:21:08;101133.81;;;7.68
26158;BMP280;67284;44.782;10.282;2023-03-01T18:26:02;101147.53;;;7.70
26158;BMP280;67284;44.782;10.282;2023-03-01T18:31:02;101155.22;;;7.72
26158;BMP280;67284;44.782;10.282;2023-03-01T18:35:54;101168.03;;;7.73
26158;BMP280;67284;44.782;10.282;2023-03-01T18:40:46;101178.28;;;7.73
26158;BMP280;67284;44.782;10.282;2023-03-01T18:45:38;101176.59;;;7.75
26158;BMP280;67284;44.782;10.282;2023-03-01T18:50:30;101188.53;;;7.73
26158;BMP280;67284;44.782;10.282;2023-03-01T18:55:22;101193.63;;;7.70
26158;BMP280;67284;44.782;10.282;2023-03-01T19:00:14;101181.63;;;7.66
26158;BMP280;67284;44.782;10.282;2023-03-01T19:05:07;101192.66;;;7.59
26158;BMP280;67284;44.782;10.282;2023-03-01T19:09:59;101190.09;;;7.56
26158;BMP280;67284;44.782;10.282;2023-03-01T19:14:50;101193.47;;;7.55
26158;BMP280;67284;44.782;10.282;2023-03-01T19:19:42;101192.63;;;7.55
26158;BMP280;67284;44.782;10.282;2023-03-01T19:24:34;101198.59;;;7.54
26158;BMP280;67284;44.782;10.282;2023-03-01T19:29:26;101195.19;;;7.56
26158;BMP280;67284;44.782;10.282;2023-03-01T19:34:18;101205.50;;;7.62
26158;BMP280;67284;44.782;10.282;2023-03-01T19:39:11;101207.25;;;7.65
26158;BMP280;67284;44.782;10.282;2023-03-01T19:44:04;101201.28;;;7.66
26158;BMP280;67284;44.782;10.282;2023-03-01T19:48:56;101203.78;;;7.64
26158;BMP280;67284;44.782;10.282;2023-03-01T19:53:50;101202.09;;;7.60
26158;BMP280;67284;44.782;10.282;2023-03-01T19:58:44;101201.22;;;7.63
26158;BMP280;67284;44.782;10.282;2023-03-01T20:03:40;101208.09;;;7.67
26158;BMP280;67284;44.782;10.282;2023-03-01T20:08:32;101209.81;;;7.68
26158;BMP280;67284;44.782;10.282;2023-03-01T20:13:24;101217.53;;;7.69
26158;BMP280;67284;44.782;10.282;2023-03-01T20:18:16;101226.06;;;7.71
26158;BMP280;67284;44.782;10.282;2023-03-01T20:23:07;101220.94;;;7.71
26158;BMP280;67284;44.782;10.282;2023-03-01T20:27:59;101227.78;;;7.72
26158;BMP280;67284;44.782;10.282;2023-03-01T20:32:51;101244.06;;;7.73
26158;BMP280;67284;44.782;10.282;2023-03-01T20:37:43;101250.88;;;7.75
26158;BMP280;67284;44.782;10.282;2023-03-01T20:42:35;101256.88;;;7.74
26158;BMP280;67284;44.782;10.282;2023-03-01T20:47:27;101263.69;;;7.75
26158;BMP280;67284;44.782;10.282;2023-03-01T20:52:18;101262.00;;;7.76
26158;BMP280;67284;44.782;10.282;2023-03-01T20:57:10;101268.81;;;7.75
26158;BMP280;67284;44.782;10.282;2023-03-01T21:02:02;101268.78;;;7.72
26158;BMP280;67284;44.782;10.282;2023-03-01T21:06:54;101258.50;;;7.69
26158;BMP280;67284;44.782;10.282;2023-03-01T21:11:48;101259.31;;;7.67
26158;BMP280;67284;44.782;10.282;2023-03-01T21:16:41;101249.94;;;7.66
26158;BMP280;67284;44.782;10.282;2023-03-01T21:21:36;101249.91;;;7.64
26158;BMP280;67284;44.782;10.282;2023-03-01T21:26:28;101247.31;;;7.61
26158;BMP280;67284;44.782;10.282;2023-03-01T21:31:24;101245.66;;;7.65
26158;BMP280;67284;44.782;10.282;2023-03-01T21:36:19;101255.91;;;7.65
26158;BMP280;67284;44.782;10.282;2023-03-01T21:41:15;101250.78;;;7.66
26158;BMP280;67284;44.782;10.282;2023-03-01T21:46:10;101254.22;;;7.68
26158;BMP280;67284;44.782;10.282;2023-03-01T21:51:06;101249.09;;;7.67
26158;BMP280;67284;44.782;10.282;2023-03-01T21:55:58;101247.38;;;7.66
26158;BMP280;67284;44.782;10.282;2023-03-01T22:00:50;101246.50;;;7.64
26158;BMP280;67284;44.782;10.282;2023-03-01T22:05:42;101249.91;;;7.64
26158;BMP280;67284;44.782;10.282;2023-03-01T22:10:38;101245.66;;;7.63
26158;BMP280;67284;44.782;10.282;2023-03-01T22:15:33;101242.22;;;7.64
26158;BMP280;67284;44.782;10.282;2023-03-01T22:20:24;101241.38;;;7.65
26158;BMP280;67284;44.782;10.282;2023-03-01T22:25:16;101249.06;;;7.65
26158;BMP280;67284;44.782;10.282;2023-03-01T22:30:09;101241.38;;;7.65
26158;BMP280;67284;44.782;10.282;2023-03-01T22:35:02;101253.38;;;7.66
26158;BMP280;67284;44.782;10.282;2023-03-01T22:39:53;101259.31;;;7.67
26158;BMP280;67284;44.782;10.282;2023-03-01T22:44:45;101252.50;;;7.66
26158;BMP280;67284;44.782;10.282;2023-03-01T22:49:37;101258.44;;;7.63
26158;BMP280;67284;44.782;10.282;2023-03-01T22:54:53;101252.41;;;7.60
26158;BMP280;67284;44.782;10.282;2023-03-01T22:59:45;101242.97;;;7.54
26158;BMP280;67284;44.782;10.282;2023-03-01T23:04:37;101258.31;;;7.53
26158;BMP280;67284;44.782;10.282;2023-03-01T23:09:31;101257.50;;;7.54
26158;BMP280;67284;44.782;10.282;2023-03-01T23:14:24;101257.50;;;7.54
26158;BMP280;67284;44.782;10.282;2023-03-01T23:19:17;101253.22;;;7.54
26158;BMP280;67284;44.782;10.282;2023-03-01T23:24:09;101254.94;;;7.55
26158;BMP280;67284;44.782;10.282;2023-03-01T23:29:00;101248.97;;;7.55
26158;BMP280;67284;44.782;10.282;2023-03-01T23:33:53;101252.41;;;7.57
26158;BMP280;67284;44.782;10.282;2023-03-01T23:38:50;101250.72;;;7.57
26158;BMP280;67284;44.782;10.282;2023-03-01T23:43:47;101249.84;;;7.57
26158;BMP280;67284;44.782;10.282;2023-03-01T23:48:40;101240.41;;;7.56
26158;BMP280;67284;44.782;10.282;2023-03-01T23:53:34;101251.56;;;7.59
26158;BMP280;67284;44.782;10.282;2023-03-01T23:58:26;101249.84;;;7.57
